Time;durP1;ratioP1;P1;durP2;ratioP2;P2;SDS_P1;SDS_P2;PMS_P1;PMS_P2;Temp;Humidity;BMP_temperature;BMP_pressure;BME280_temperature;BME280_humidity;BME280_pressure;Samples;Min_cycle;Max_cycle;Signal;HPM_P1;HPM_P2
2022/07/04 00:00:25;;;;;;;9.90;7.40;;;14.60;99.90;;;;;;5070275;28;20504;-50
2022/07/04 00:02:51;;;;;;;9.82;7.50;;;14.50;99.90;;;;;;5067642;28;20548;-49
2022/07/04 00:05:17;;;;;;;7.90;7.10;;;14.50;99.90;;;;;;5068635;28;20036;-50
2022/07/04 00:07:45;;;;;;;8.07;7.25;;;14.40;99.90;;;;;;5069819;28;20490;-52
2022/07/04 00:10:12;;;;;;;8.73;8.02;;;14.40;99.90;;;;;;5068006;28;20124;-51
2022/07/04 00:12:38;;;;;;;8.15;7.18;;;14.40;99.90;;;;;;5068278;28;20048;-49
2022/07/04 00:15:05;;;;;;;9.27;8.35;;;14.30;99.90;;;;;;5070475;28;20098;-49
2022/07/04 00:17:31;;;;;;;9.00;8.20;;;14.30;99.90;;;;;;5070794;28;20119;-52
2022/07/04 00:19:57;;;;;;;8.48;7.68;;;14.30;99.90;;;;;;5068226;28;20402;-50
2022/07/04 00:22:23;;;;;;;9.63;8.60;;;14.30;99.90;;;;;;5068248;28;20036;-50
2022/07/04 00:24:48;;;;;;;10.38;9.30;;;14.30;99.90;;;;;;5068873;28;20043;-52
2022/07/04 00:27:14;;;;;;;10.75;8.95;;;14.30;99.90;;;;;;5067932;28;20410;-53
2022/07/04 00:29:40;;;;;;;9.68;8.77;;;14.20;99.90;;;;;;5070330;28;20044;-50
2022/07/04 00:32:06;;;;;;;10.45;8.75;;;14.20;99.90;;;;;;5066013;28;20079;-54
2022/07/04 00:34:31;;;;;;;9.35;8.45;;;14.20;99.90;;;;;;5067258;28;20052;-54
2022/07/04 00:36:57;;;;;;;10.70;9.15;;;14.10;99.90;;;;;;5069180;28;20033;-52
2022/07/04 00:39:22;;;;;;;8.93;8.13;;;14.10;99.90;;;;;;5066992;28;20076;-54
2022/07/04 00:41:48;;;;;;;10.10;9.10;;;14.10;99.90;;;;;;5065632;28;20044;-53
2022/07/04 00:44:17;;;;;;;10.30;9.07;;;14.00;99.90;;;;;;5068132;28;20110;-53
2022/07/04 00:46:44;;;;;;;9.80;8.85;;;14.00;99.90;;;;;;5065081;28;20040;-52
2022/07/04 00:49:11;;;;;;;10.15;8.88;;;13.90;99.90;;;;;;5067942;28;20036;-51
2022/07/04 00:51:38;;;;;;;10.07;8.90;;;13.90;99.90;;;;;;5064794;28;20135;-50
2022/07/04 00:54:06;;;;;;;10.50;9.10;;;13.90;99.90;;;;;;5067145;28;20054;-51
2022/07/04 00:56:31;;;;;;;10.48;9.23;;;13.90;99.90;;;;;;5068080;28;20131;-50
2022/07/04 00:58:59;;;;;;;10.07;9.05;;;13.90;99.90;;;;;;5067022;28;20120;-52
2022/07/04 01:01:25;;;;;;;9.77;8.80;;;13.80;99.90;;;;;;5068412;28;20039;-53
2022/07/04 01:03:51;;;;;;;9.98;8.75;;;13.80;99.90;;;;;;5066479;28;20119;-53
2022/07/04 01:06:18;;;;;;;8.80;7.97;;;13.80;99.90;;;;;;5067057;28;20051;-54
2022/07/04 01:08:44;;;;;;;11.85;9.25;;;13.70;99.90;;;;;;5069372;28;20497;-53
2022/07/04 01:11:11;;;;;;;10.95;9.00;;;13.70;99.90;;;;;;5064241;28;20045;-53
2022/07/04 01:13:37;;;;;;;9.88;8.88;;;13.70;99.90;;;;;;5070110;28;20544;-52
2022/07/04 01:16:04;;;;;;;8.63;7.70;;;13.70;99.90;;;;;;5068540;28;20034;-50
2022/07/04 01:18:30;;;;;;;10.30;9.03;;;13.70;99.90;;;;;;5069607;28;20040;-52
2022/07/04 01:20:56;;;;;;;10.30;8.85;;;13.70;99.90;;;;;;5067698;28;20383;-51
2022/07/04 01:23:21;;;;;;;9.02;8.15;;;13.70;99.90;;;;;;5066144;28;20127;-52
2022/07/04 01:25:49;;;;;;;9.45;8.45;;;13.60;99.90;;;;;;5065040;28;20037;-51
2022/07/04 01:28:15;;;;;;;9.45;8.45;;;13.60;99.90;;;;;;5066937;28;20537;-53
2022/07/04 01:30:41;;;;;;;9.48;8.73;;;13.60;99.90;;;;;;5069578;28;20033;-50
2022/07/04 01:33:07;;;;;;;9.77;8.68;;;13.60;99.90;;;;;;5066158;28;20040;-51
2022/07/04 01:35:32;;;;;;;9.43;8.55;;;13.50;99.90;;;;;;5066589;28;20386;-53
2022/07/04 01:37:58;;;;;;;12.60;9.48;;;13.50;99.90;;;;;;5067852;28;20044;-51
2022/07/04 01:40:23;;;;;;;8.80;8.10;;;13.50;99.90;;;;;;5064573;28;20406;-48
2022/07/04 01:42:50;;;;;;;9.70;8.75;;;13.50;99.90;;;;;;5066041;28;20101;-53
2022/07/04 01:45:15;;;;;;;10.25;9.25;;;13.50;99.90;;;;;;5066197;28;20041;-50
2022/07/04 01:47:41;;;;;;;11.60;9.77;;;13.40;99.90;;;;;;5064601;28;20040;-52
2022/07/04 01:50:08;;;;;;;9.40;8.50;;;13.50;99.90;;;;;;5066161;28;20033;-54
2022/07/04 01:52:34;;;;;;;11.45;9.38;;;13.40;99.90;;;;;;5066585;28;20083;-53
2022/07/04 01:55:00;;;;;;;10.23;9.13;;;13.40;99.90;;;;;;5066392;28;20088;-53
2022/07/04 01:57:26;;;;;;;11.13;9.65;;;13.40;99.90;;;;;;5067151;28;20056;-52
2022/07/04 02:02:36;;;;;;;12.98;10.43;;;13.40;99.90;;;;;;5065615;28;20109;-52
2022/07/04 02:05:03;;;;;;;11.43;9.73;;;13.40;99.90;;;;;;5065912;28;20080;-53
2022/07/04 02:07:29;;;;;;;10.25;9.25;;;13.40;99.90;;;;;;5066070;28;20056;-51
2022/07/04 02:09:54;;;;;;;11.02;8.38;;;13.30;99.90;;;;;;5066129;28;20410;-52
2022/07/04 02:15:05;;;;;;;9.30;8.27;;;13.30;99.90;;;;;;5068462;28;20075;-53
2022/07/04 02:17:30;;;;;;;10.82;9.48;;;13.30;99.90;;;;;;5065126;28;20135;-52
2022/07/04 02:19:56;;;;;;;9.30;8.00;;;13.30;99.90;;;;;;5069369;28;20076;-53
2022/07/04 02:22:21;;;;;;;10.55;9.50;;;13.20;99.90;;;;;;5065787;28;20110;-53
2022/07/04 02:24:47;;;;;;;10.45;9.45;;;13.20;99.90;;;;;;5065060;28;20043;-51
2022/07/04 02:27:13;;;;;;;9.48;8.57;;;13.10;99.90;;;;;;5065813;28;20037;-52
2022/07/04 02:29:39;;;;;;;10.18;9.13;;;13.10;99.90;;;;;;5066878;28;20033;-53
2022/07/04 02:32:05;;;;;;;10.02;9.18;;;13.10;99.90;;;;;;5064445;28;20040;-52
2022/07/04 02:34:31;;;;;;;10.65;9.25;;;13.10;99.90;;;;;;5065648;28;20044;-50
2022/07/04 02:36:57;;;;;;;10.02;8.60;;;13.10;99.90;;;;;;5066140;28;20040;-52
2022/07/04 02:39:22;;;;;;;10.15;9.20;;;13.10;99.90;;;;;;5065362;28;20040;-51
2022/07/04 02:41:48;;;;;;;10.00;9.13;;;13.10;99.90;;;;;;5062327;28;20032;-54
2022/07/04 02:44:14;;;;;;;11.07;9.13;;;13.10;99.90;;;;;;5065514;28;20029;-52
2022/07/04 02:46:39;;;;;;;9.73;8.85;;;13.10;99.90;;;;;;5064819;28;20040;-50
2022/07/04 02:49:05;;;;;;;10.05;9.05;;;13.00;99.90;;;;;;5065111;28;20041;-49
2022/07/04 02:51:30;;;;;;;9.20;8.35;;;13.00;99.90;;;;;;5063573;28;20121;-52
2022/07/04 02:53:56;;;;;;;11.00;9.90;;;13.00;99.90;;;;;;5065820;28;20041;-53
2022/07/04 02:56:22;;;;;;;10.40;9.32;;;13.00;99.90;;;;;;5065448;28;20041;-54
2022/07/04 02:58:48;;;;;;;10.13;9.02;;;13.00;99.90;;;;;;5067786;28;20041;-51
2022/07/04 03:01:14;;;;;;;9.73;8.82;;;13.00;99.90;;;;;;5066701;28;20036;-51
2022/07/04 03:03:40;;;;;;;11.10;9.98;;;13.00;99.90;;;;;;5063444;28;20071;-54
2022/07/04 03:06:09;;;;;;;10.43;8.73;;;13.00;99.90;;;;;;5065417;28;20072;-50
2022/07/04 03:08:36;;;;;;;8.25;7.40;;;13.00;99.90;;;;;;5064983;28;20518;-51
2022/07/04 03:11:02;;;;;;;9.02;8.13;;;12.90;99.90;;;;;;5063836;28;20647;-52
2022/07/04 03:13:28;;;;;;;8.77;7.85;;;13.00;99.90;;;;;;5064371;28;20040;-52
2022/07/04 03:15:54;;;;;;;11.32;8.98;;;12.90;99.90;;;;;;5065426;28;20380;-53
2022/07/04 03:18:20;;;;;;;8.18;7.47;;;13.00;99.90;;;;;;5067758;28;20041;-52
2022/07/04 03:20:46;;;;;;;8.93;8.07;;;12.90;99.90;;;;;;5064304;28;20032;-53
2022/07/04 03:23:12;;;;;;;8.20;7.30;;;12.90;99.90;;;;;;5064626;28;20040;-52
2022/07/04 03:25:39;;;;;;;10.15;8.38;;;13.00;99.90;;;;;;5064393;28;20072;-50
2022/07/04 03:28:05;;;;;;;9.52;8.63;;;13.00;99.90;;;;;;5064537;28;20079;-52
2022/07/04 03:30:31;;;;;;;10.27;9.00;;;13.00;99.90;;;;;;5063483;28;20040;-51
2022/07/04 03:32:57;;;;;;;7.93;7.30;;;13.00;99.90;;;;;;5064758;28;20045;-53
2022/07/04 03:35:22;;;;;;;8.00;7.20;;;13.00;99.90;;;;;;5065064;28;20045;-52
2022/07/04 03:37:48;;;;;;;8.70;7.80;;;13.00;99.90;;;;;;5065104;28;20037;-53
2022/07/04 03:40:13;;;;;;;11.80;8.05;;;13.00;99.90;;;;;;5063478;28;20049;-53
2022/07/04 03:42:39;;;;;;;9.40;8.40;;;;;;;;;;5063372;28;20044;-51
2022/07/04 03:45:06;;;;;;;9.25;7.70;;;13.00;99.90;;;;;;5062425;28;20539;-53
2022/07/04 03:47:32;;;;;;;10.55;8.18;;;13.00;99.90;;;;;;5063829;28;20048;-51
2022/07/04 03:49:58;;;;;;;9.25;8.27;;;13.00;99.90;;;;;;5064982;28;20051;-52
2022/07/04 03:52:24;;;;;;;8.13;6.75;;;13.00;99.90;;;;;;5063721;28;20075;-49
2022/07/04 03:54:49;;;;;;;8.82;7.90;;;13.00;99.90;;;;;;5063675;28;20048;-49
2022/07/04 03:57:15;;;;;;;11.32;7.68;;;13.00;99.90;;;;;;5063395;28;20039;-49
2022/07/04 03:59:41;;;;;;;7.72;7.00;;;13.00;99.90;;;;;;5064177;28;20055;-54
2022/07/04 04:02:06;;;;;;;8.52;7.68;;;13.10;99.90;;;;;;5064250;28;20041;-51
2022/07/04 04:07:16;;;;;;;7.65;6.60;;;13.20;99.90;;;;;;5063952;28;20057;-53
2022/07/04 04:09:42;;;;;;;7.90;7.20;;;13.20;99.90;;;;;;5064168;28;20044;-53
2022/07/04 04:12:08;;;;;;;7.53;6.25;;;13.20;99.90;;;;;;5066668;28;20070;-52
2022/07/04 04:14:34;;;;;;;8.10;6.88;;;13.20;99.90;;;;;;5066518;28;20402;-51
2022/07/04 04:16:59;;;;;;;7.65;6.88;;;13.30;99.90;;;;;;5069033;28;20037;-51
2022/07/04 04:19:25;;;;;;;10.38;7.10;;;13.30;99.90;;;;;;5064212;28;20037;-52
2022/07/04 04:21:50;;;;;;;12.20;7.22;;;13.40;99.90;;;;;;5061761;28;20475;-53
2022/07/04 04:24:16;;;;;;;10.57;7.43;;;13.40;99.90;;;;;;5065041;28;20044;-51
2022/07/04 04:26:42;;;;;;;9.32;8.00;;;13.50;99.90;;;;;;5062067;28;20459;-51
2022/07/04 04:29:07;;;;;;;9.68;7.82;;;13.60;99.90;;;;;;5065199;28;20041;-51
2022/07/04 04:31:33;;;;;;;10.65;7.40;;;13.70;99.90;;;;;;5065581;28;20071;-51
2022/07/04 04:33:58;;;;;;;9.98;7.78;;;13.80;99.90;;;;;;5065981;28;20029;-52
2022/07/04 04:36:24;;;;;;;11.05;8.20;;;13.90;99.90;;;;;;5065837;28;20424;-53
2022/07/04 04:38:49;;;;;;;15.57;9.02;;;14.00;99.90;;;;;;5068276;28;20029;-49
2022/07/04 04:41:16;;;;;;;10.32;9.32;;;14.80;99.90;;;;;;5066074;28;21032;-54
2022/07/04 04:43:42;;;;;;;10.02;8.65;;;16.90;99.90;;;;;;5067481;28;20036;-54
2022/07/04 04:46:08;;;;;;;8.77;7.93;;;17.20;99.90;;;;;;5067781;28;20522;-55
2022/07/04 04:48:33;;;;;;;9.32;8.35;;;18.40;99.90;;;;;;5068562;28;20088;-54
2022/07/04 04:50:59;;;;;;;7.68;6.97;;;18.90;99.90;;;;;;5067838;28;20509;-54
2022/07/04 04:53:25;;;;;;;10.52;6.95;;;19.70;99.90;;;;;;5067174;28;20053;-54
2022/07/04 04:55:54;;;;;;;7.32;6.28;;;20.00;99.90;;;;;;5067271;28;20071;-55
2022/07/04 04:58:20;;;;;;;7.40;5.65;;;20.70;99.90;;;;;;5067132;28;20041;-53
2022/07/04 05:00:48;;;;;;;5.90;5.07;;;21.30;99.90;;;;;;5067337;28;20053;-54
2022/07/04 05:03:13;;;;;;;;;;;21.60;99.90;;;;;;5067643;28;20052;-55
2022/07/04 05:05:39;;;;;;;7.38;4.85;;;21.60;99.90;;;;;;5067332;28;19920;-56
2022/07/04 05:08:04;;;;;;;7.05;4.70;;;22.20;99.90;;;;;;5066892;28;20504;-57
2022/07/04 05:10:30;;;;;;;6.10;4.35;;;22.60;99.90;;;;;;5067652;28;20055;-52
2022/07/04 05:12:56;;;;;;;6.68;4.78;;;22.80;99.90;;;;;;5065830;28;20040;-54
2022/07/04 05:15:21;;;;;;;8.05;4.60;;;23.40;99.90;;;;;;5068924;28;20082;-56
2022/07/04 05:17:47;;;;;;;5.40;4.07;;;23.70;99.90;;;;;;5066466;28;20033;-55
2022/07/04 05:20:13;;;;;;;5.57;4.60;;;24.00;99.90;;;;;;5069080;28;20090;-56
2022/07/04 05:22:38;;;;;;;7.35;4.65;;;24.40;99.90;;;;;;5066634;28;20033;-56
2022/07/04 05:25:05;;;;;;;6.35;3.65;;;25.00;99.90;;;;;;5065028;28;21566;-54
2022/07/04 05:27:30;;;;;;;6.88;3.83;;;25.40;99.90;;;;;;5066249;28;20060;-56
2022/07/04 05:29:58;;;;;;;6.47;3.80;;;25.40;99.90;;;;;;5069342;28;20111;-56
2022/07/04 05:32:24;;;;;;;4.68;3.90;;;25.60;99.90;;;;;;5067068;28;20510;-56
2022/07/04 05:34:49;;;;;;;7.20;3.92;;;25.60;99.90;;;;;;5066641;28;20056;-55
2022/07/04 05:37:15;;;;;;;4.35;3.58;;;25.70;99.90;;;;;;5064988;28;20029;-56
2022/07/04 05:39:41;;;;;;;5.38;3.80;;;25.70;99.90;;;;;;5066845;28;20045;-56
2022/07/04 05:42:06;;;;;;;6.72;3.67;;;25.60;99.90;;;;;;5065014;28;20040;-56
2022/07/04 05:44:32;;;;;;;6.60;3.60;;;25.70;99.60;;;;;;5064899;28;20123;-55
2022/07/04 05:46:57;;;;;;;4.68;3.50;;;25.90;99.10;;;;;;5065492;28;20091;-56
2022/07/04 05:49:23;;;;;;;6.63;3.40;;;26.00;98.50;;;;;;5064784;28;20128;-55
2022/07/04 05:51:49;;;;;;;6.65;3.90;;;26.30;98.20;;;;;;5066121;28;20552;-56
2022/07/04 05:54:14;;;;;;;8.25;3.80;;;26.90;98.50;;;;;;5064625;28;20403;-55
2022/07/04 05:56:41;;;;;;;5.38;3.47;;;27.10;98.10;;;;;;5065752;28;20040;-57
2022/07/04 05:59:07;;;;;;;;;;;27.30;96.80;;;;;;5069076;28;20136;-56
2022/07/04 06:01:33;;;;;;;4.75;3.33;;;27.40;96.90;;;;;;5066811;28;20015;-56
2022/07/04 06:03:58;;;;;;;5.65;3.25;;;27.60;96.20;;;;;;5065455;28;20394;-55
2022/07/04 06:06:24;;;;;;;6.03;3.10;;;27.70;94.10;;;;;;5066692;28;20040;-56
2022/07/04 06:08:49;;;;;;;5.93;3.20;;;27.60;94.40;;;;;;5064413;28;20127;-56
2022/07/04 06:11:17;;;;;;;4.50;3.35;;;27.30;93.70;;;;;;5066152;28;20123;-57
2022/07/04 06:13:43;;;;;;;4.47;2.90;;;27.50;94.50;;;;;;5068025;28;20051;-56
2022/07/04 06:16:08;;;;;;;6.03;3.08;;;27.80;93.90;;;;;;5065859;28;20032;-56
2022/07/04 06:18:34;;;;;;;7.78;3.08;;;27.80;91.40;;;;;;5067390;28;20040;-57
2022/07/04 06:21:00;;;;;;;6.78;3.38;;;27.80;92.00;;;;;;5069617;28;20039;-57
2022/07/04 06:23:25;;;;;;;6.15;3.00;;;28.00;92.20;;;;;;5066451;28;20048;-55
2022/07/04 06:25:51;;;;;;;5.28;3.08;;;27.70;91.00;;;;;;5065955;28;20036;-57
2022/07/04 06:28:17;;;;;;;4.35;3.53;;;27.80;92.70;;;;;;5066839;28;20442;-57
2022/07/04 06:30:42;;;;;;;5.00;3.08;;;28.20;92.00;;;;;;5064665;28;20178;-56
2022/07/04 06:33:08;;;;;;;4.95;3.22;;;28.20;91.60;;;;;;5065629;28;21353;-56
2022/07/04 06:35:46;;;;;;;4.45;3.30;;;28.60;91.40;;;;;;5065948;28;20079;-57
2022/07/04 06:38:15;;;;;;;6.07;2.90;;;28.50;89.50;;;;;;5064299;28;20171;-57
2022/07/04 06:40:41;;;;;;;5.00;2.97;;;28.60;90.00;;;;;;5064117;28;20029;-57
2022/07/04 06:43:07;;;;;;;6.30;3.17;;;28.70;89.80;;;;;;5061452;28;20051;-57
2022/07/04 06:45:36;;;;;;;5.22;2.78;;;28.90;89.40;;;;;;5063950;28;20414;-58
2022/07/04 06:48:06;;;;;;;3.83;2.78;;;29.20;89.40;;;;;;5058430;28;20056;-57
2022/07/04 06:50:35;;;;;;;6.03;2.80;;;29.30;90.40;;;;;;5065340;28;20075;-58
2022/07/04 06:53:02;;;;;;;4.65;2.63;;;29.50;86.80;;;;;;5070350;28;20062;-57
2022/07/04 06:55:28;;;;;;;7.22;2.75;;;29.40;86.40;;;;;;5052059;28;20037;-56
2022/07/04 06:57:53;;;;;;;4.85;2.88;;;28.80;83.70;;;;;;5071255;28;20475;-55
2022/07/04 07:00:19;;;;;;;6.93;2.55;;;28.30;85.70;;;;;;5071633;28;20090;-57
2022/07/04 07:02:44;;;;;;;7.07;3.13;;;27.00;85.80;;;;;;5072898;28;20041;-57
2022/07/04 07:05:10;;;;;;;5.45;2.55;;;26.70;87.00;;;;;;5064931;28;20526;-56
2022/07/04 07:07:36;;;;;;;5.82;2.80;;;26.50;88.50;;;;;;5059779;28;20159;-57
2022/07/04 07:10:02;;;;;;;8.13;2.88;;;26.80;89.20;;;;;;5059844;28;20069;-55
2022/07/04 07:12:29;;;;;;;6.78;3.22;;;27.10;89.70;;;;;;5062217;28;20040;-56
2022/07/04 07:14:54;;;;;;;5.50;2.72;;;27.30;90.00;;;;;;5061700;28;20075;-56
2022/07/04 07:17:20;;;;;;;4.43;2.90;;;27.50;87.60;;;;;;5060459;28;20221;-57
2022/07/04 07:19:46;;;;;;;3.58;2.83;;;27.70;87.60;;;;;;5059174;28;20045;-55
2022/07/04 07:22:14;;;;;;;8.20;3.17;;;28.10;87.90;;;;;;5061891;28;20106;-58
2022/07/04 07:24:39;;;;;;;5.60;2.93;;;28.30;87.70;;;;;;5065700;28;20117;-56
2022/07/04 07:27:05;;;;;;;5.43;3.00;;;28.40;85.70;;;;;;5058676;28;20169;-55
2022/07/04 07:29:31;;;;;;;6.32;3.00;;;28.20;86.60;;;;;;5056908;28;20141;-54
2022/07/04 07:31:57;;;;;;;3.97;2.78;;;27.40;86.80;;;;;;5062610;28;20068;-55
2022/07/04 07:34:23;;;;;;;4.83;2.60;;;27.50;88.10;;;;;;5062994;28;20057;-55
2022/07/04 07:36:49;;;;;;;6.80;2.90;;;27.40;87.80;;;;;;5061743;28;20101;-56
2022/07/04 07:39:14;;;;;;;7.53;2.90;;;26.60;89.30;;;;;;5064520;28;20090;-56
2022/07/04 07:41:40;;;;;;;7.18;3.03;;;26.50;89.90;;;;;;5063544;28;20059;-57
2022/07/04 07:44:06;;;;;;;6.80;3.17;;;26.00;91.30;;;;;;5064057;28;20032;-56
2022/07/04 07:46:32;;;;;;;5.22;2.70;;;25.70;91.50;;;;;;5063615;28;20406;-57
2022/07/04 07:48:58;;;;;;;6.80;2.88;;;25.90;91.90;;;;;;5064942;28;20033;-56
2022/07/04 07:51:24;;;;;;;5.28;2.70;;;25.80;92.30;;;;;;5062504;28;20044;-56
2022/07/04 07:53:49;;;;;;;5.85;2.53;;;25.50;92.10;;;;;;5063296;28;20049;-57
2022/07/04 07:56:15;;;;;;;7.50;2.60;;;25.10;92.60;;;;;;5064290;28;20544;-55
2022/07/04 07:58:40;;;;;;;6.20;2.95;;;25.00;93.30;;;;;;5060983;28;20079;-56
2022/07/04 08:01:06;;;;;;;7.68;3.20;;;24.30;93.90;;;;;;5062229;28;20032;-57
2022/07/04 08:06:16;;;;;;;6.68;2.75;;;24.90;95.30;;;;;;5061104;28;20037;-56
2022/07/04 08:08:42;;;;;;;6.47;2.90;;;25.20;94.80;;;;;;5067879;28;20041;-55
2022/07/04 08:11:12;;;;;;;6.45;3.78;;;25.00;94.20;;;;;;5068506;28;20049;-57
2022/07/04 08:13:38;;;;;;;5.07;2.60;;;24.70;93.70;;;;;;5061326;28;20059;-56
2022/07/04 08:16:05;;;;;;;5.15;2.63;;;24.20;94.60;;;;;;5069412;28;20037;-58
2022/07/04 08:18:31;;;;;;;6.90;3.42;;;23.70;95.10;;;;;;5063793;28;20041;-56
2022/07/04 08:20:57;;;;;;;5.30;3.20;;;23.40;96.70;;;;;;5062983;28;20127;-57
2022/07/04 08:23:22;;;;;;;8.90;3.03;;;23.10;97.00;;;;;;5061501;28;20163;-55
2022/07/04 08:25:48;;;;;;;7.95;3.38;;;23.10;98.20;;;;;;5063053;28;20044;-57
2022/07/04 08:28:13;;;;;;;5.25;2.67;;;23.20;98.00;;;;;;5062094;28;20036;-57
2022/07/04 08:30:39;;;;;;;5.45;2.65;;;23.70;99.20;;;;;;5064378;28;20036;-56
2022/07/04 08:33:04;;;;;;;7.18;2.63;;;24.00;98.30;;;;;;5067627;28;20041;-57
2022/07/04 08:35:30;;;;;;;8.23;2.60;;;24.60;98.00;;;;;;5064011;28;20131;-56
2022/07/04 08:37:56;;;;;;;7.97;2.63;;;24.30;97.10;;;;;;5067905;28;20048;-57
2022/07/04 08:40:22;;;;;;;6.45;2.47;;;24.40;97.00;;;;;;5065220;28;20418;-57
2022/07/04 08:42:49;;;;;;;5.18;2.30;;;24.40;96.60;;;;;;5065347;28;20509;-56
2022/07/04 08:45:16;;;;;;;6.22;2.05;;;24.20;96.80;;;;;;5059496;28;20043;-57
2022/07/04 08:47:42;;;;;;;;;;;24.00;96.80;;;;;;5059609;28;20049;-55
2022/07/04 08:50:20;;;;;;;6.60;2.30;;;23.50;97.40;;;;;;5059533;28;19924;-55
2022/07/04 08:52:55;;;;;;;6.00;2.58;;;23.00;97.60;;;;;;5064273;28;20052;-56
2022/07/04 08:58:25;;;;;;;5.22;2.20;;;22.90;98.70;;;;;;5064674;28;20056;-56
2022/07/04 09:01:05;;;;;;;6.13;2.63;;;22.70;98.80;;;;;;5065212;28;20083;-56
2022/07/04 09:03:31;;;;;;;6.22;2.15;;;22.30;98.70;;;;;;5056354;28;20044;-55
2022/07/04 09:05:57;;;;;;;7.57;2.30;;;22.30;99.40;;;;;;5064381;28;20048;-55
2022/07/04 09:08:23;;;;;;;8.20;2.40;;;22.30;99.60;;;;;;5066193;28;20047;-55
2022/07/04 09:10:51;;;;;;;5.07;2.30;;;22.10;99.90;;;;;;5065121;28;20044;-54
2022/07/04 09:13:20;;;;;;;;;;;22.20;99.90;;;;;;5060835;28;20524;-56
2022/07/04 09:15:47;;;;;;;4.85;1.92;;;22.10;99.90;;;;;;5055537;28;19935;-55
2022/07/04 09:18:23;;;;;;;7.13;2.50;;;22.50;99.90;;;;;;5062280;28;20260;-56
2022/07/04 09:20:50;;;;;;;4.72;2.17;;;22.70;99.90;;;;;;5065041;28;20128;-56
2022/07/04 09:23:23;;;;;;;7.77;2.80;;;22.90;99.90;;;;;;5064058;28;20032;-56
2022/07/04 09:26:05;;;;;;;9.55;2.92;;;23.30;99.90;;;;;;5064980;28;20401;-56
2022/07/04 09:28:30;;;;;;;5.32;2.47;;;23.60;99.90;;;;;;5066063;28;20085;-56
2022/07/04 09:30:56;;;;;;;6.82;2.42;;;23.50;99.50;;;;;;5066587;28;20102;-56
2022/07/04 09:33:23;;;;;;;5.57;2.17;;;24.00;99.80;;;;;;5066784;28;20089;-56
2022/07/04 09:35:48;;;;;;;5.40;1.90;;;24.20;98.90;;;;;;5064034;28;20048;-56
2022/07/04 09:38:23;;;;;;;5.88;1.88;;;23.90;98.20;;;;;;5065136;28;20039;-55
2022/07/04 09:43:37;;;;;;;5.00;1.92;;;23.90;97.70;;;;;;5063946;28;20059;-55
2022/07/04 09:46:02;;;;;;;4.70;1.80;;;23.90;97.80;;;;;;5065506;28;20040;-55
2022/07/04 09:48:48;;;;;;;7.38;2.17;;;24.30;98.10;;;;;;5064235;28;20082;-55
2022/07/04 09:51:13;;;;;;;4.05;1.30;;;24.70;97.90;;;;;;5063475;28;20048;-55
2022/07/04 09:53:39;;;;;;;4.32;1.42;;;25.00;96.90;;;;;;5064766;28;20110;-56
2022/07/04 09:56:04;;;;;;;3.78;1.52;;;25.30;96.50;;;;;;5064196;28;20044;-56
2022/07/04 09:58:30;;;;;;;4.55;1.45;;;25.50;94.80;;;;;;5071234;28;20119;-56
2022/07/04 10:00:59;;;;;;;2.63;1.30;;;25.30;94.60;;;;;;5069641;28;20482;-54
2022/07/04 10:03:25;;;;;;;3.33;1.13;;;24.90;92.80;;;;;;5063620;28;20053;-55
2022/07/04 10:06:15;;;;;;;3.05;1.13;;;24.50;93.20;;;;;;5064955;28;20055;-56
2022/07/04 10:08:42;;;;;;;5.45;1.13;;;24.60;94.00;;;;;;5062752;28;20561;-55
2022/07/04 10:11:09;;;;;;;3.45;1.17;;;25.00;93.00;;;;;;5063142;28;20048;-54
2022/07/04 10:13:35;;;;;;;3.08;1.27;;;25.30;92.80;;;;;;5061751;28;20041;-53
2022/07/04 10:16:01;;;;;;;3.33;1.10;;;25.40;93.10;;;;;;5062470;28;20044;-55
2022/07/04 10:18:27;;;;;;;3.53;1.33;;;25.50;93.10;;;;;;5061250;28;20057;-54
2022/07/04 10:20:54;;;;;;;3.63;1.50;;;25.50;93.10;;;;;;5061302;28;20036;-55
2022/07/04 10:23:21;;;;;;;1.92;1.30;;;25.30;92.00;;;;;;5063892;28;20136;-53
2022/07/04 10:25:51;;;;;;;4.20;1.58;;;25.20;92.40;;;;;;5060181;28;20040;-53
2022/07/04 10:28:18;;;;;;;3.10;1.20;;;24.80;92.40;;;;;;5061315;28;20044;-53
2022/07/04 10:30:48;;;;;;;3.45;1.20;;;25.10;92.00;;;;;;5061969;28;20051;-51
2022/07/04 10:33:15;;;;;;;2.22;1.15;;;24.90;92.50;;;;;;5062811;28;20041;-55
2022/07/04 10:35:54;;;;;;;1.80;1.10;;;25.00;92.50;;;;;;5061679;28;20605;-51
2022/07/04 10:38:30;;;;;;;4.15;1.33;;;25.00;92.90;;;;;;5060520;28;20056;-54
2022/07/04 10:41:01;;;;;;;3.05;1.15;;;25.10;92.10;;;;;;5061020;28;20340;-55
2022/07/04 10:43:41;;;;;;;3.28;1.40;;;24.90;93.00;;;;;;5059478;28;20040;-53
2022/07/04 10:46:15;;;;;;;2.40;1.13;;;24.90;92.20;;;;;;5060869;28;20052;-53
2022/07/04 10:48:50;;;;;;;2.50;1.20;;;25.20;92.20;;;;;;5062409;28;20407;-55
2022/07/04 10:51:41;;;;;;;2.08;1.17;;;25.20;91.50;;;;;;5058367;28;21542;-54
2022/07/04 10:54:15;;;;;;;2.78;1.15;;;24.80;91.90;;;;;;5060591;28;20097;-54
2022/07/04 10:56:46;;;;;;;3.03;1.13;;;24.20;91.70;;;;;;5064163;28;20119;-53
2022/07/04 10:59:15;;;;;;;4.53;1.63;;;24.20;92.00;;;;;;5062528;28;20075;-54
2022/07/04 11:01:46;;;;;;;4.70;1.48;;;24.00;92.30;;;;;;5063607;28;20091;-55
2022/07/04 11:04:12;;;;;;;5.30;1.73;;;24.00;93.00;;;;;;5060944;28;20039;-53
2022/07/04 11:06:52;;;;;;;4.80;1.40;;;23.80;92.60;;;;;;5061098;28;20045;-53
2022/07/04 11:09:18;;;;;;;3.70;1.48;;;23.60;92.80;;;;;;5060064;28;20080;-55
2022/07/04 11:11:59;;;;;;;4.00;1.23;;;23.60;92.80;;;;;;5059003;28;20726;-55
2022/07/04 11:14:41;;;;;;;5.63;1.80;;;23.60;92.90;;;;;;5060961;28;20044;-55
2022/07/04 11:17:12;;;;;;;2.60;1.20;;;23.70;93.20;;;;;;5058159;28;20059;-53
2022/07/04 11:19:38;;;;;;;2.05;0.90;;;23.90;92.60;;;;;;5059088;28;20037;-52
2022/07/04 11:22:06;;;;;;;5.27;1.20;;;23.90;91.30;;;;;;5062099;28;20041;-54
2022/07/04 11:24:32;;;;;;;2.42;1.40;;;23.40;92.10;;;;;;5060045;28;20471;-54
2022/07/04 11:26:58;;;;;;;3.17;1.53;;;23.30;92.40;;;;;;5060907;28;20068;-53
2022/07/04 11:29:24;;;;;;;2.58;1.20;;;23.40;92.40;;;;;;5060915;28;20532;-52
2022/07/04 11:31:51;;;;;;;4.28;1.75;;;23.70;93.30;;;;;;5060323;28;20462;-53
2022/07/04 11:34:18;;;;;;;3.00;1.27;;;23.90;93.30;;;;;;5057501;28;20471;-51
2022/07/04 11:36:46;;;;;;;3.30;1.73;;;24.10;93.50;;;;;;5061285;28;20261;-55
2022/07/04 11:39:19;;;;;;;3.30;1.50;;;24.50;94.20;;;;;;5058631;28;20103;-54
2022/07/04 11:47:25;;;;;;;2.72;1.70;;;24.00;92.70;;;;;;5063857;28;20118;-54
2022/07/04 11:49:53;;;;;;;4.85;1.38;;;24.20;93.40;;;;;;5065751;28;20041;-54
2022/07/04 11:52:25;;;;;;;1.92;1.17;;;24.30;92.40;;;;;;5064000;28;20044;-60
2022/07/04 11:54:52;;;;;;;3.58;1.20;;;24.80;92.60;;;;;;5062440;28;20041;-55
2022/07/04 11:57:28;;;;;;;;;;;24.80;93.00;;;;;;5069830;28;20032;-56
2022/07/04 11:59:57;;;;;;;5.03;1.77;;;25.00;92.20;;;;;;5068506;28;20204;-56
2022/07/04 12:02:23;;;;;;;3.60;1.60;;;25.20;91.70;;;;;;5068830;28;20578;-56
2022/07/04 12:04:49;;;;;;;1.95;1.30;;;25.20;91.90;;;;;;5064710;28;20076;-56
2022/07/04 12:07:16;;;;;;;4.35;1.27;;;24.80;91.10;;;;;;5061996;28;20047;-55
2022/07/04 12:09:44;;;;;;;2.42;1.23;;;24.70;90.60;;;;;;5060554;28;20030;-56
2022/07/04 12:12:17;;;;;;;3.40;1.20;;;24.50;91.00;;;;;;5064311;28;20068;-55
2022/07/04 12:15:07;;;;;;;5.10;1.27;;;24.20;90.90;;;;;;5064251;28;20048;-53
2022/07/04 12:17:36;;;;;;;4.50;1.23;;;24.30;91.60;;;;;;5062187;28;20121;-55
2022/07/04 12:20:18;;;;;;;2.03;1.00;;;24.50;91.70;;;;;;5062753;28;20574;-55
2022/07/04 12:22:49;;;;;;;2.00;1.20;;;24.50;91.80;;;;;;5060830;28;20040;-55
2022/07/04 12:25:28;;;;;;;3.38;1.20;;;24.60;90.30;;;;;;5062977;28;20049;-54
2022/07/04 12:27:58;;;;;;;3.53;1.30;;;24.70;90.90;;;;;;5069789;28;20032;-56
2022/07/04 12:30:29;;;;;;;2.70;1.13;;;24.90;90.40;;;;;;5079368;28;20040;-55
2022/07/04 12:33:00;;;;;;;2.30;1.02;;;24.40;90.40;;;;;;5074125;28;20511;-56
2022/07/04 12:35:40;;;;;;;3.15;1.20;;;24.00;90.70;;;;;;5073406;28;20048;-56
2022/07/04 12:38:12;;;;;;;2.80;1.10;;;24.30;90.50;;;;;;5067305;28;20047;-56
2022/07/04 12:40:51;;;;;;;5.55;1.58;;;24.40;91.10;;;;;;5068104;28;20036;-54
2022/07/04 12:43:17;;;;;;;7.03;1.60;;;24.70;90.90;;;;;;5065945;28;20048;-55
2022/07/04 12:45:53;;;;;;;5.25;1.42;;;24.80;90.70;;;;;;5064878;28;20033;-53
2022/07/04 12:48:27;;;;;;;7.83;1.43;;;24.40;90.10;;;;;;5062499;28;20072;-55
2022/07/04 12:51:09;;;;;;;5.00;1.73;;;23.80;90.50;;;;;;5061484;28;20441;-52
2022/07/04 12:53:40;;;;;;;2.30;1.25;;;24.00;91.10;;;;;;5063111;28;20052;-52
2022/07/04 12:56:07;;;;;;;1.85;1.10;;;24.40;91.70;;;;;;5064482;28;20044;-55
2022/07/04 12:58:32;;;;;;;5.47;1.17;;;24.50;90.50;;;;;;5078565;28;20037;-54
2022/07/04 13:00:58;;;;;;;2.45;1.13;;;24.50;90.70;;;;;;5064046;28;20090;-53
2022/07/04 13:03:24;;;;;;;2.85;1.33;;;24.60;91.00;;;;;;5062625;28;20589;-53
2022/07/04 13:05:49;;;;;;;2.63;1.33;;;24.50;90.60;;;;;;5059652;28;20044;-55
2022/07/04 13:08:15;;;;;;;2.78;1.08;;;24.40;90.60;;;;;;5071705;28;20440;-54